sensor_id;sensor_type;location;lat;lon;timestamp;P1;durP1;ratioP1;P2;durP2;ratioP2
45692;SDS011;31402;44.752;-0.374;2022-11-04T00:01:45;15.80;;;2.93;;
45692;SDS011;31402;44.752;-0.374;2022-11-04T00:04:12;15.70;;;4.43;;
45692;SDS011;31402;44.752;-0.374;2022-11-04T00:06:40;12.53;;;3.10;;
45692;SDS011;31402;44.752;-0.374;2022-11-04T00:09:07;18.43;;;3.53;;
45692;SDS011;31402;44.752;-0.374;2022-11-04T00:11:37;13.97;;;2.50;;
45692;SDS011;31402;44.752;-0.374;2022-11-04T00:14:21;13.93;;;2.40;;
45692;SDS011;31402;44.752;-0.374;2022-11-04T00:16:47;7.83;;;1.57;;
45692;SDS011;31402;44.752;-0.374;2022-11-04T00:19:32;14.17;;;2.10;;
45692;SDS011;31402;44.752;-0.374;2022-11-04T00:22:17;12.13;;;1.77;;
45692;SDS011;31402;44.752;-0.374;2022-11-04T00:25:02;13.00;;;1.77;;
45692;SDS011;31402;44.752;-0.374;2022-11-04T00:27:47;9.57;;;1.87;;
45692;SDS011;31402;44.752;-0.374;2022-11-04T00:30:31;11.73;;;1.90;;
45692;SDS011;31402;44.752;-0.374;2022-11-04T00:32:57;11.47;;;2.17;;
45692;SDS011;31402;44.752;-0.374;2022-11-04T00:35:48;13.40;;;1.40;;
45692;SDS011;31402;44.752;-0.374;2022-11-04T00:38:15;15.33;;;2.20;;
45692;SDS011;31402;44.752;-0.374;2022-11-04T00:40:41;11.93;;;1.87;;
45692;SDS011;31402;44.752;-0.374;2022-11-04T00:43:07;12.20;;;1.97;;
45692;SDS011;31402;44.752;-0.374;2022-11-04T00:45:33;10.40;;;1.80;;
45692;SDS011;31402;44.752;-0.374;2022-11-04T00:47:58;8.10;;;1.57;;
45692;SDS011;31402;44.752;-0.374;2022-11-04T00:50:24;7.87;;;1.37;;
45692;SDS011;31402;44.752;-0.374;2022-11-04T00:52:50;11.47;;;1.67;;
45692;SDS011;31402;44.752;-0.374;2022-11-04T00:55:16;10.17;;;1.80;;
45692;SDS011;31402;44.752;-0.374;2022-11-04T00:57:41;11.87;;;1.67;;
45692;SDS011;31402;44.752;-0.374;2022-11-04T01:00:07;11.67;;;1.87;;
45692;SDS011;31402;44.752;-0.374;2022-11-04T01:02:33;8.07;;;1.40;;
45692;SDS011;31402;44.752;-0.374;2022-11-04T01:04:59;11.03;;;1.60;;
45692;SDS011;31402;44.752;-0.374;2022-11-04T01:07:25;10.70;;;1.40;;
45692;SDS011;31402;44.752;-0.374;2022-11-04T01:09:51;11.75;;;1.85;;
45692;SDS011;31402;44.752;-0.374;2022-11-04T01:12:17;10.50;;;1.77;;
45692;SDS011;31402;44.752;-0.374;2022-11-04T01:14:42;9.97;;;1.57;;
45692;SDS011;31402;44.752;-0.374;2022-11-04T01:17:09;12.90;;;1.90;;
45692;SDS011;31402;44.752;-0.374;2022-11-04T01:19:34;7.20;;;1.40;;
45692;SDS011;31402;44.752;-0.374;2022-11-04T01:22:00;11.40;;;1.50;;
45692;SDS011;31402;44.752;-0.374;2022-11-04T01:24:26;10.67;;;1.63;;
45692;SDS011;31402;44.752;-0.374;2022-11-04T01:26:52;9.20;;;1.60;;
45692;SDS011;31402;44.752;-0.374;2022-11-04T01:29:18;12.20;;;1.80;;
45692;SDS011;31402;44.752;-0.374;2022-11-04T01:31:43;8.47;;;1.43;;
45692;SDS011;31402;44.752;-0.374;2022-11-04T01:34:09;9.90;;;1.60;;
45692;SDS011;31402;44.752;-0.374;2022-11-04T01:36:35;8.93;;;1.73;;
45692;SDS011;31402;44.752;-0.374;2022-11-04T01:39:01;9.17;;;1.60;;
45692;SDS011;31402;44.752;-0.374;2022-11-04T01:41:28;9.13;;;1.70;;
45692;SDS011;31402;44.752;-0.374;2022-11-04T01:46:58;11.50;;;1.30;;
45692;SDS011;31402;44.752;-0.374;2022-11-04T01:52:17;7.87;;;1.73;;
45692;SDS011;31402;44.752;-0.374;2022-11-04T01:54:58;14.40;;;2.00;;
45692;SDS011;31402;44.752;-0.374;2022-11-04T01:57:32;15.27;;;1.60;;
45692;SDS011;31402;44.752;-0.374;2022-11-04T02:00:01;8.87;;;1.50;;
45692;SDS011;31402;44.752;-0.374;2022-11-04T02:02:28;9.50;;;1.70;;
45692;SDS011;31402;44.752;-0.374;2022-11-04T02:04:55;13.87;;;2.20;;
45692;SDS011;31402;44.752;-0.374;2022-11-04T02:07:20;10.30;;;2.10;;
45692;SDS011;31402;44.752;-0.374;2022-11-04T02:09:47;11.50;;;1.60;;
45692;SDS011;31402;44.752;-0.374;2022-11-04T02:12:13;12.30;;;1.63;;
45692;SDS011;31402;44.752;-0.374;2022-11-04T02:14:58;11.93;;;1.57;;
45692;SDS011;31402;44.752;-0.374;2022-11-04T02:17:29;8.17;;;1.40;;
45692;SDS011;31402;44.752;-0.374;2022-11-04T02:22:51;9.33;;;1.50;;
45692;SDS011;31402;44.752;-0.374;2022-11-04T02:31:16;8.77;;;1.50;;
45692;SDS011;31402;44.752;-0.374;2022-11-04T02:34:10;10.50;;;1.83;;
45692;SDS011;31402;44.752;-0.374;2022-11-04T02:42:25;12.83;;;3.60;;
45692;SDS011;31402;44.752;-0.374;2022-11-04T02:45:05;22.10;;;4.60;;
45692;SDS011;31402;44.752;-0.374;2022-11-04T02:47:41;23.43;;;5.00;;
45692;SDS011;31402;44.752;-0.374;2022-11-04T02:50:28;18.70;;;3.43;;
45692;SDS011;31402;44.752;-0.374;2022-11-04T02:53:17;18.77;;;4.27;;
45692;SDS011;31402;44.752;-0.374;2022-11-04T02:55:48;16.80;;;3.83;;
45692;SDS011;31402;44.752;-0.374;2022-11-04T02:58:22;23.67;;;4.10;;
45692;SDS011;31402;44.752;-0.374;2022-11-04T03:00:54;22.97;;;4.80;;
45692;SDS011;31402;44.752;-0.374;2022-11-04T03:03:27;29.40;;;5.63;;
45692;SDS011;31402;44.752;-0.374;2022-11-04T03:05:57;25.63;;;4.43;;
45692;SDS011;31402;44.752;-0.374;2022-11-04T03:08:28;19.83;;;4.33;;
45692;SDS011;31402;44.752;-0.374;2022-11-04T03:11:01;17.47;;;2.77;;
45692;SDS011;31402;44.752;-0.374;2022-11-04T03:13:44;12.37;;;2.30;;
45692;SDS011;31402;44.752;-0.374;2022-11-04T03:16:14;16.50;;;2.03;;
45692;SDS011;31402;44.752;-0.374;2022-11-04T03:21:35;14.87;;;2.23;;
45692;SDS011;31402;44.752;-0.374;2022-11-04T03:24:04;13.17;;;1.97;;
45692;SDS011;31402;44.752;-0.374;2022-11-04T03:26:54;11.93;;;2.00;;
45692;SDS011;31402;44.752;-0.374;2022-11-04T03:29:34;17.23;;;2.67;;
45692;SDS011;31402;44.752;-0.374;2022-11-04T03:32:15;17.57;;;2.37;;
45692;SDS011;31402;44.752;-0.374;2022-11-04T03:34:49;17.00;;;2.40;;
45692;SDS011;31402;44.752;-0.374;2022-11-04T03:37:16;12.90;;;1.97;;
45692;SDS011;31402;44.752;-0.374;2022-11-04T03:39:42;19.07;;;2.70;;
45692;SDS011;31402;44.752;-0.374;2022-11-04T03:42:09;18.77;;;2.47;;
45692;SDS011;31402;44.752;-0.374;2022-11-04T03:44:49;20.63;;;2.70;;
45692;SDS011;31402;44.752;-0.374;2022-11-04T03:47:21;18.07;;;2.17;;
45692;SDS011;31402;44.752;-0.374;2022-11-04T03:49:57;17.97;;;2.33;;
45692;SDS011;31402;44.752;-0.374;2022-11-04T03:52:31;18.13;;;2.63;;
45692;SDS011;31402;44.752;-0.374;2022-11-04T03:54:57;15.93;;;2.23;;
45692;SDS011;31402;44.752;-0.374;2022-11-04T03:58:09;14.27;;;2.37;;
45692;SDS011;31402;44.752;-0.374;2022-11-04T04:00:24;21.20;;;2.70;;
45692;SDS011;31402;44.752;-0.374;2022-11-04T04:03:03;17.57;;;2.17;;
45692;SDS011;31402;44.752;-0.374;2022-11-04T04:05:47;15.27;;;2.20;;
45692;SDS011;31402;44.752;-0.374;2022-11-04T04:11:18;13.27;;;2.10;;
45692;SDS011;31402;44.752;-0.374;2022-11-04T04:14:04;14.60;;;1.93;;
45692;SDS011;31402;44.752;-0.374;2022-11-04T04:16:33;11.63;;;1.87;;
45692;SDS011;31402;44.752;-0.374;2022-11-04T04:19:13;14.37;;;2.03;;
45692;SDS011;31402;44.752;-0.374;2022-11-04T04:21:52;9.83;;;1.60;;
45692;SDS011;31402;44.752;-0.374;2022-11-04T04:24:25;10.30;;;1.53;;
45692;SDS011;31402;44.752;-0.374;2022-11-04T04:27:15;8.10;;;1.43;;
45692;SDS011;31402;44.752;-0.374;2022-11-04T04:29:56;9.90;;;1.80;;
45692;SDS011;31402;44.752;-0.374;2022-11-04T04:32:28;9.47;;;1.90;;
45692;SDS011;31402;44.752;-0.374;2022-11-04T04:35:03;11.73;;;1.57;;
45692;SDS011;31402;44.752;-0.374;2022-11-04T04:37:49;5.57;;;1.03;;
45692;SDS011;31402;44.752;-0.374;2022-11-04T04:40:18;9.73;;;0.97;;
45692;SDS011;31402;44.752;-0.374;2022-11-04T04:43:10;5.37;;;0.80;;
45692;SDS011;31402;44.752;-0.374;2022-11-04T04:45:58;6.10;;;0.90;;
45692;SDS011;31402;44.752;-0.374;2022-11-04T04:48:25;4.83;;;0.80;;
45692;SDS011;31402;44.752;-0.374;2022-11-04T04:50:51;5.00;;;0.80;;
45692;SDS011;31402;44.752;-0.374;2022-11-04T04:53:21;5.47;;;0.80;;
45692;SDS011;31402;44.752;-0.374;2022-11-04T04:55:47;4.23;;;0.70;;
45692;SDS011;31402;44.752;-0.374;2022-11-04T04:58:13;4.33;;;0.87;;
45692;SDS011;31402;44.752;-0.374;2022-11-04T05:00:38;4.37;;;0.60;;
45692;SDS011;31402;44.752;-0.374;2022-11-04T05:03:04;3.93;;;0.80;;
45692;SDS011;31402;44.752;-0.374;2022-11-04T05:05:30;4.67;;;0.70;;
45692;SDS011;31402;44.752;-0.374;2022-11-04T05:08:02;2.93;;;0.60;;
45692;SDS011;31402;44.752;-0.374;2022-11-04T05:10:32;4.13;;;0.60;;
45692;SDS011;31402;44.752;-0.374;2022-11-04T05:12:58;5.53;;;0.77;;
45692;SDS011;31402;44.752;-0.374;2022-11-04T05:15:43;4.07;;;0.67;;
45692;SDS011;31402;44.752;-0.374;2022-11-04T05:18:09;4.27;;;0.80;;
45692;SDS011;31402;44.752;-0.374;2022-11-04T05:20:35;3.53;;;0.67;;
45692;SDS011;31402;44.752;-0.374;2022-11-04T05:23:03;6.57;;;0.83;;
45692;SDS011;31402;44.752;-0.374;2022-11-04T05:25:29;3.83;;;0.70;;
45692;SDS011;31402;44.752;-0.374;2022-11-04T05:27:58;5.27;;;0.90;;
45692;SDS011;31402;44.752;-0.374;2022-11-04T05:30:24;5.13;;;0.67;;
45692;SDS011;31402;44.752;-0.374;2022-11-04T05:32:50;5.10;;;0.77;;
45692;SDS011;31402;44.752;-0.374;2022-11-04T05:35:16;2.17;;;0.60;;
45692;SDS011;31402;44.752;-0.374;2022-11-04T05:37:41;5.33;;;0.60;;
45692;SDS011;31402;44.752;-0.374;2022-11-04T05:40:07;4.23;;;0.70;;
45692;SDS011;31402;44.752;-0.374;2022-11-04T05:42:33;5.93;;;0.70;;
45692;SDS011;31402;44.752;-0.374;2022-11-04T05:45:01;6.60;;;1.20;;
45692;SDS011;31402;44.752;-0.374;2022-11-04T05:47:27;6.20;;;1.03;;
45692;SDS011;31402;44.752;-0.374;2022-11-04T05:49:53;6.03;;;1.07;;
45692;SDS011;31402;44.752;-0.374;2022-11-04T05:52:18;4.73;;;0.80;;
45692;SDS011;31402;44.752;-0.374;2022-11-04T05:54:44;5.53;;;0.90;;
45692;SDS011;31402;44.752;-0.374;2022-11-04T05:57:10;3.40;;;0.60;;
45692;SDS011;31402;44.752;-0.374;2022-11-04T05:59:36;6.87;;;1.23;;
45692;SDS011;31402;44.752;-0.374;2022-11-04T06:02:02;5.67;;;1.10;;
45692;SDS011;31402;44.752;-0.374;2022-11-04T06:04:28;6.50;;;0.90;;
45692;SDS011;31402;44.752;-0.374;2022-11-04T06:06:53;6.77;;;0.90;;
45692;SDS011;31402;44.752;-0.374;2022-11-04T06:09:19;7.33;;;1.00;;
45692;SDS011;31402;44.752;-0.374;2022-11-04T06:11:45;8.30;;;1.13;;
45692;SDS011;31402;44.752;-0.374;2022-11-04T06:14:11;12.67;;;1.60;;
45692;SDS011;31402;44.752;-0.374;2022-11-04T06:16:36;8.13;;;1.17;;
45692;SDS011;31402;44.752;-0.374;2022-11-04T06:19:02;6.10;;;1.07;;
45692;SDS011;31402;44.752;-0.374;2022-11-04T06:21:29;8.40;;;1.03;;
45692;SDS011;31402;44.752;-0.374;2022-11-04T06:23:56;5.03;;;0.90;;
45692;SDS011;31402;44.752;-0.374;2022-11-04T06:26:23;6.70;;;1.03;;
45692;SDS011;31402;44.752;-0.374;2022-11-04T06:28:50;7.50;;;1.00;;
45692;SDS011;31402;44.752;-0.374;2022-11-04T06:31:16;11.80;;;1.50;;
45692;SDS011;31402;44.752;-0.374;2022-11-04T06:33:42;7.83;;;1.00;;
45692;SDS011;31402;44.752;-0.374;2022-11-04T06:36:10;9.57;;;1.20;;
45692;SDS011;31402;44.752;-0.374;2022-11-04T06:38:37;7.13;;;0.90;;
45692;SDS011;31402;44.752;-0.374;2022-11-04T06:41:04;7.03;;;1.13;;
45692;SDS011;31402;44.752;-0.374;2022-11-04T06:43:31;7.33;;;1.10;;
45692;SDS011;31402;44.752;-0.374;2022-11-04T06:45:58;6.37;;;1.00;;
45692;SDS011;31402;44.752;-0.374;2022-11-04T06:48:25;7.03;;;1.00;;
45692;SDS011;31402;44.752;-0.374;2022-11-04T06:50:51;7.27;;;1.10;;
45692;SDS011;31402;44.752;-0.374;2022-11-04T06:53:17;4.93;;;0.97;;
45692;SDS011;31402;44.752;-0.374;2022-11-04T06:55:43;6.53;;;1.27;;
45692;SDS011;31402;44.752;-0.374;2022-11-04T06:58:08;7.40;;;1.20;;
45692;SDS011;31402;44.752;-0.374;2022-11-04T07:00:34;8.27;;;1.20;;
45692;SDS011;31402;44.752;-0.374;2022-11-04T07:03:00;10.47;;;1.40;;
45692;SDS011;31402;44.752;-0.374;2022-11-04T07:05:27;5.53;;;1.00;;
45692;SDS011;31402;44.752;-0.374;2022-11-04T07:07:53;7.20;;;0.97;;
45692;SDS011;31402;44.752;-0.374;2022-11-04T07:10:19;6.97;;;1.10;;
45692;SDS011;31402;44.752;-0.374;2022-11-04T07:12:45;7.60;;;1.23;;
45692;SDS011;31402;44.752;-0.374;2022-11-04T07:15:10;7.93;;;1.30;;
45692;SDS011;31402;44.752;-0.374;2022-11-04T07:17:36;13.67;;;1.67;;
45692;SDS011;31402;44.752;-0.374;2022-11-04T07:20:02;13.80;;;2.00;;
45692;SDS011;31402;44.752;-0.374;2022-11-04T07:22:29;14.63;;;1.73;;
45692;SDS011;31402;44.752;-0.374;2022-11-04T07:24:55;14.17;;;2.40;;
45692;SDS011;31402;44.752;-0.374;2022-11-04T07:27:21;13.87;;;1.70;;
45692;SDS011;31402;44.752;-0.374;2022-11-04T07:29:47;11.83;;;1.93;;
45692;SDS011;31402;44.752;-0.374;2022-11-04T07:32:13;13.43;;;2.20;;
45692;SDS011;31402;44.752;-0.374;2022-11-04T07:34:38;11.50;;;1.63;;
45692;SDS011;31402;44.752;-0.374;2022-11-04T07:37:04;16.80;;;2.40;;
45692;SDS011;31402;44.752;-0.374;2022-11-04T07:39:30;14.57;;;2.20;;
45692;SDS011;31402;44.752;-0.374;2022-11-04T07:41:56;11.53;;;2.00;;
45692;SDS011;31402;44.752;-0.374;2022-11-04T07:44:21;17.00;;;2.50;;
45692;SDS011;31402;44.752;-0.374;2022-11-04T07:46:47;15.00;;;2.23;;
45692;SDS011;31402;44.752;-0.374;2022-11-04T07:49:14;10.63;;;2.07;;
45692;SDS011;31402;44.752;-0.374;2022-11-04T07:51:39;10.43;;;1.77;;
45692;SDS011;31402;44.752;-0.374;2022-11-04T07:54:05;14.33;;;2.60;;
45692;SDS011;31402;44.752;-0.374;2022-11-04T07:56:31;14.50;;;2.40;;
45692;SDS011;31402;44.752;-0.374;2022-11-04T07:58:57;14.17;;;2.67;;
45692;SDS011;31402;44.752;-0.374;2022-11-04T08:01:22;14.93;;;2.40;;
45692;SDS011;31402;44.752;-0.374;2022-11-04T08:03:49;16.60;;;2.50;;
45692;SDS011;31402;44.752;-0.374;2022-11-04T08:06:16;13.13;;;2.13;;
45692;SDS011;31402;44.752;-0.374;2022-11-04T08:08:44;14.63;;;2.33;;
45692;SDS011;31402;44.752;-0.374;2022-11-04T08:11:14;14.57;;;2.37;;
45692;SDS011;31402;44.752;-0.374;2022-11-04T08:13:43;15.53;;;2.80;;
45692;SDS011;31402;44.752;-0.374;2022-11-04T08:16:11;12.80;;;2.73;;
45692;SDS011;31402;44.752;-0.374;2022-11-04T08:18:39;16.93;;;2.40;;
45692;SDS011;31402;44.752;-0.374;2022-11-04T08:21:06;19.40;;;2.63;;
45692;SDS011;31402;44.752;-0.374;2022-11-04T08:23:32;16.60;;;2.80;;
45692;SDS011;31402;44.752;-0.374;2022-11-04T08:25:58;12.37;;;1.90;;
45692;SDS011;31402;44.752;-0.374;2022-11-04T08:28:25;14.87;;;2.40;;
45692;SDS011;31402;44.752;-0.374;2022-11-04T08:30:55;19.93;;;2.77;;
45692;SDS011;31402;44.752;-0.374;2022-11-04T08:33:30;10.63;;;2.10;;
45692;SDS011;31402;44.752;-0.374;2022-11-04T08:35:58;15.73;;;2.20;;
45692;SDS011;31402;44.752;-0.374;2022-11-04T08:38:26;13.33;;;2.60;;
45692;SDS011;31402;44.752;-0.374;2022-11-04T08:40:55;11.57;;;2.10;;
45692;SDS011;31402;44.752;-0.374;2022-11-04T08:43:24;16.67;;;2.37;;
45692;SDS011;31402;44.752;-0.374;2022-11-04T08:45:50;13.33;;;2.40;;
45692;SDS011;31402;44.752;-0.374;2022-11-04T08:48:16;11.47;;;2.07;;
45692;SDS011;31402;44.752;-0.374;2022-11-04T08:50:42;15.20;;;2.33;;
45692;SDS011;31402;44.752;-0.374;2022-11-04T08:53:08;12.50;;;2.30;;
45692;SDS011;31402;44.752;-0.374;2022-11-04T08:55:34;13.77;;;2.37;;
45692;SDS011;31402;44.752;-0.374;2022-11-04T08:58:00;17.40;;;2.67;;
45692;SDS011;31402;44.752;-0.374;2022-11-04T09:00:26;16.07;;;2.83;;
45692;SDS011;31402;44.752;-0.374;2022-11-04T09:02:52;13.93;;;2.40;;
45692;SDS011;31402;44.752;-0.374;2022-11-04T09:05:19;16.90;;;3.07;;
45692;SDS011;31402;44.752;-0.374;2022-11-04T09:07:45;21.77;;;2.90;;
45692;SDS011;31402;44.752;-0.374;2022-11-04T09:10:11;17.93;;;2.47;;
45692;SDS011;31402;44.752;-0.374;2022-11-04T09:12:37;18.47;;;2.97;;
45692;SDS011;31402;44.752;-0.374;2022-11-04T09:15:03;20.43;;;3.27;;
45692;SDS011;31402;44.752;-0.374;2022-11-04T09:17:32;16.87;;;2.70;;
45692;SDS011;31402;44.752;-0.374;2022-11-04T09:19:58;17.63;;;3.00;;
45692;SDS011;31402;44.752;-0.374;2022-11-04T09:22:23;22.70;;;3.77;;
45692;SDS011;31402;44.752;-0.374;2022-11-04T09:24:49;19.50;;;2.97;;
45692;SDS011;31402;44.752;-0.374;2022-11-04T09:27:15;14.90;;;2.80;;
45692;SDS011;31402;44.752;-0.374;2022-11-04T09:29:41;20.23;;;2.77;;
45692;SDS011;31402;44.752;-0.374;2022-11-04T09:32:07;22.57;;;3.13;;
45692;SDS011;31402;44.752;-0.374;2022-11-04T09:34:33;25.73;;;3.73;;
45692;SDS011;31402;44.752;-0.374;2022-11-04T09:36:59;18.47;;;3.20;;
45692;SDS011;31402;44.752;-0.374;2022-11-04T09:39:25;21.63;;;3.10;;
45692;SDS011;31402;44.752;-0.374;2022-11-04T09:42:00;17.93;;;2.83;;
45692;SDS011;31402;44.752;-0.374;2022-11-04T09:47:38;16.47;;;2.77;;
45692;SDS011;31402;44.752;-0.374;2022-11-04T09:50:06;21.57;;;3.20;;
45692;SDS011;31402;44.752;-0.374;2022-11-04T09:52:37;20.43;;;2.83;;
45692;SDS011;31402;44.752;-0.374;2022-11-04T09:55:14;18.40;;;2.87;;
45692;SDS011;31402;44.752;-0.374;2022-11-04T09:57:47;16.47;;;2.60;;
45692;SDS011;31402;44.752;-0.374;2022-11-04T10:00:19;21.27;;;2.83;;
45692;SDS011;31402;44.752;-0.374;2022-11-04T10:03:04;14.40;;;2.33;;
45692;SDS011;31402;44.752;-0.374;2022-11-04T10:19:37;18.33;;;2.50;;
45692;SDS011;31402;44.752;-0.374;2022-11-04T10:25:17;18.10;;;2.83;;
45692;SDS011;31402;44.752;-0.374;2022-11-04T10:28:09;13.90;;;2.20;;
45692;SDS011;31402;44.752;-0.374;2022-11-04T10:30:38;18.43;;;2.90;;
45692;SDS011;31402;44.752;-0.374;2022-11-04T10:33:18;17.00;;;2.57;;
45692;SDS011;31402;44.752;-0.374;2022-11-04T10:35:53;17.83;;;2.90;;
45692;SDS011;31402;44.752;-0.374;2022-11-04T10:41:28;15.40;;;3.00;;
45692;SDS011;31402;44.752;-0.374;2022-11-04T10:52:35;12.87;;;2.57;;
45692;SDS011;31402;44.752;-0.374;2022-11-04T10:55:02;16.73;;;2.53;;
45692;SDS011;31402;44.752;-0.374;2022-11-04T10:57:40;14.50;;;2.97;;
45692;SDS011;31402;44.752;-0.374;2022-11-04T11:00:06;16.30;;;2.73;;
45692;SDS011;31402;44.752;-0.374;2022-11-04T11:05:19;15.10;;;2.50;;
45692;SDS011;31402;44.752;-0.374;2022-11-04T11:07:48;12.83;;;2.60;;
45692;SDS011;31402;44.752;-0.374;2022-11-04T11:10:21;15.93;;;2.60;;
45692;SDS011;31402;44.752;-0.374;2022-11-04T11:12:52;11.23;;;2.57;;
45692;SDS011;31402;44.752;-0.374;2022-11-04T11:15:35;15.37;;;2.70;;
45692;SDS011;31402;44.752;-0.374;2022-11-04T11:23:46;15.57;;;2.63;;
45692;SDS011;31402;44.752;-0.374;2022-11-04T11:28:48;10.40;;;1.80;;
45692;SDS011;31402;44.752;-0.374;2022-11-04T11:31:16;11.67;;;2.00;;
45692;SDS011;31402;44.752;-0.374;2022-11-04T11:36:27;9.23;;;1.60;;
45692;SDS011;31402;44.752;-0.374;2022-11-04T11:39:13;10.77;;;1.70;;
45692;SDS011;31402;44.752;-0.374;2022-11-04T11:42:00;10.20;;;2.00;;
45692;SDS011;31402;44.752;-0.374;2022-11-04T11:44:39;11.93;;;1.80;;
45692;SDS011;31402;44.752;-0.374;2022-11-04T11:47:21;11.80;;;1.90;;
45692;SDS011;31402;44.752;-0.374;2022-11-04T11:53:14;10.87;;;1.80;;
45692;SDS011;31402;44.752;-0.374;2022-11-04T11:55:42;10.63;;;1.87;;
45692;SDS011;31402;44.752;-0.374;2022-11-04T12:01:14;13.93;;;2.23;;
45692;SDS011;31402;44.752;-0.374;2022-11-04T12:03:50;12.23;;;1.70;;
45692;SDS011;31402;44.752;-0.374;2022-11-04T12:06:29;8.40;;;1.60;;
45692;SDS011;31402;44.752;-0.374;2022-11-04T12:09:27;11.97;;;1.73;;
45692;SDS011;31402;44.752;-0.374;2022-11-04T12:12:07;7.67;;;1.60;;
45692;SDS011;31402;44.752;-0.374;2022-11-04T12:28:22;10.70;;;1.50;;
45692;SDS011;31402;44.752;-0.374;2022-11-04T12:31:04;6.57;;;1.57;;
45692;SDS011;31402;44.752;-0.374;2022-11-04T12:42:00;7.77;;;1.47;;
45692;SDS011;31402;44.752;-0.374;2022-11-04T12:47:18;7.20;;;1.50;;
45692;SDS011;31402;44.752;-0.374;2022-11-04T12:52:29;9.50;;;1.47;;
45692;SDS011;31402;44.752;-0.374;2022-11-04T13:00:58;6.77;;;1.63;;
45692;SDS011;31402;44.752;-0.374;2022-11-04T13:03:42;6.70;;;1.70;;
45692;SDS011;31402;44.752;-0.374;2022-11-04T13:06:16;5.93;;;1.40;;
45692;SDS011;31402;44.752;-0.374;2022-11-04T13:08:50;10.60;;;1.90;;
45692;SDS011;31402;44.752;-0.374;2022-11-04T13:11:35;5.20;;;1.37;;
45692;SDS011;31402;44.752;-0.374;2022-11-04T13:14:11;9.73;;;1.50;;
45692;SDS011;31402;44.752;-0.374;2022-11-04T13:16:43;8.00;;;1.40;;
45692;SDS011;31402;44.752;-0.374;2022-11-04T13:19:24;9.93;;;1.60;;
45692;SDS011;31402;44.752;-0.374;2022-11-04T13:22:10;8.87;;;1.70;;
45692;SDS011;31402;44.752;-0.374;2022-11-04T13:24:45;9.23;;;1.57;;
45692;SDS011;31402;44.752;-0.374;2022-11-04T13:27:39;8.70;;;1.50;;
45692;SDS011;31402;44.752;-0.374;2022-11-04T13:30:19;6.40;;;1.40;;
45692;SDS011;31402;44.752;-0.374;2022-11-04T13:36:29;7.60;;;1.87;;
45692;SDS011;31402;44.752;-0.374;2022-11-04T13:38:41;6.50;;;1.33;;
45692;SDS011;31402;44.752;-0.374;2022-11-04T13:44:10;8.23;;;1.30;;
45692;SDS011;31402;44.752;-0.374;2022-11-04T13:46:58;7.50;;;1.70;;
45692;SDS011;31402;44.752;-0.374;2022-11-04T13:49:28;8.67;;;1.87;;
45692;SDS011;31402;44.752;-0.374;2022-11-04T13:52:08;10.00;;;1.77;;
45692;SDS011;31402;44.752;-0.374;2022-11-04T13:54:42;12.50;;;1.83;;
45692;SDS011;31402;44.752;-0.374;2022-11-04T13:57:17;5.40;;;1.40;;
45692;SDS011;31402;44.752;-0.374;2022-11-04T14:02:38;8.83;;;1.90;;
45692;SDS011;31402;44.752;-0.374;2022-11-04T14:16:08;13.67;;;1.83;;
45692;SDS011;31402;44.752;-0.374;2022-11-04T14:18:43;7.63;;;1.23;;
45692;SDS011;31402;44.752;-0.374;2022-11-04T14:21:12;8.33;;;1.83;;
45692;SDS011;31402;44.752;-0.374;2022-11-04T14:23:41;10.27;;;1.60;;
45692;SDS011;31402;44.752;-0.374;2022-11-04T14:26:17;6.67;;;1.50;;
45692;SDS011;31402;44.752;-0.374;2022-11-04T14:28:46;10.50;;;1.37;;
45692;SDS011;31402;44.752;-0.374;2022-11-04T14:31:36;10.10;;;1.70;;
45692;SDS011;31402;44.752;-0.374;2022-11-04T14:34:21;9.07;;;1.50;;
45692;SDS011;31402;44.752;-0.374;2022-11-04T14:36:56;10.33;;;1.40;;
45692;SDS011;31402;44.752;-0.374;2022-11-04T14:39:26;6.70;;;1.37;;
45692;SDS011;31402;44.752;-0.374;2022-11-04T14:42:04;9.50;;;1.50;;
45692;SDS011;31402;44.752;-0.374;2022-11-04T14:47:12;7.93;;;1.40;;
45692;SDS011;31402;44.752;-0.374;2022-11-04T14:49:47;8.03;;;1.40;;
45692;SDS011;31402;44.752;-0.374;2022-11-04T14:54:46;8.03;;;1.20;;
45692;SDS011;31402;44.752;-0.374;2022-11-04T14:57:14;8.83;;;1.70;;
45692;SDS011;31402;44.752;-0.374;2022-11-04T14:59:45;8.77;;;1.20;;
45692;SDS011;31402;44.752;-0.374;2022-11-04T15:02:15;9.57;;;1.40;;
45692;SDS011;31402;44.752;-0.374;2022-11-04T15:04:53;8.00;;;1.23;;
45692;SDS011;31402;44.752;-0.374;2022-11-04T15:07:38;6.80;;;1.30;;
45692;SDS011;31402;44.752;-0.374;2022-11-04T15:10:18;10.13;;;1.60;;
45692;SDS011;31402;44.752;-0.374;2022-11-04T15:12:49;8.77;;;1.50;;
45692;SDS011;31402;44.752;-0.374;2022-11-04T15:15:58;8.23;;;1.53;;
45692;SDS011;31402;44.752;-0.374;2022-11-04T15:18:14;8.93;;;1.60;;
45692;SDS011;31402;44.752;-0.374;2022-11-04T15:20:47;6.00;;;1.40;;
45692;SDS011;31402;44.752;-0.374;2022-11-04T15:23:15;7.53;;;1.40;;
45692;SDS011;31402;44.752;-0.374;2022-11-04T15:25:48;8.83;;;1.63;;
45692;SDS011;31402;44.752;-0.374;2022-11-04T15:28:21;8.77;;;1.50;;
45692;SDS011;31402;44.752;-0.374;2022-11-04T15:33:39;11.97;;;2.40;;
45692;SDS011;31402;44.752;-0.374;2022-11-04T15:36:12;12.33;;;2.80;;
45692;SDS011;31402;44.752;-0.374;2022-11-04T15:38:43;11.53;;;3.73;;
45692;SDS011;31402;44.752;-0.374;2022-11-04T15:41:13;10.90;;;3.20;;
45692;SDS011;31402;44.752;-0.374;2022-11-04T15:44:01;10.13;;;2.07;;
45692;SDS011;31402;44.752;-0.374;2022-11-04T15:46:27;11.07;;;2.00;;
45692;SDS011;31402;44.752;-0.374;2022-11-04T15:49:04;9.17;;;1.60;;
45692;SDS011;31402;44.752;-0.374;2022-11-04T15:51:38;37.10;;;16.57;;
45692;SDS011;31402;44.752;-0.374;2022-11-04T15:57:13;43.80;;;23.23;;
45692;SDS011;31402;44.752;-0.374;2022-11-04T16:00:00;17.07;;;6.70;;
45692;SDS011;31402;44.752;-0.374;2022-11-04T16:02:43;10.13;;;3.37;;
45692;SDS011;31402;44.752;-0.374;2022-11-04T16:07:38;15.87;;;8.70;;
45692;SDS011;31402;44.752;-0.374;2022-11-04T16:12:57;10.87;;;2.93;;
45692;SDS011;31402;44.752;-0.374;2022-11-04T16:18:19;9.23;;;2.30;;
45692;SDS011;31402;44.752;-0.374;2022-11-04T16:20:48;9.80;;;2.33;;
45692;SDS011;31402;44.752;-0.374;2022-11-04T16:23:17;12.67;;;2.20;;
45692;SDS011;31402;44.752;-0.374;2022-11-04T16:26:21;9.93;;;2.00;;
45692;SDS011;31402;44.752;-0.374;2022-11-04T16:28:40;10.17;;;2.27;;
45692;SDS011;31402;44.752;-0.374;2022-11-04T16:31:13;10.80;;;2.03;;
45692;SDS011;31402;44.752;-0.374;2022-11-04T16:33:50;13.77;;;2.70;;
45692;SDS011;31402;44.752;-0.374;2022-11-04T16:36:16;9.33;;;2.17;;
45692;SDS011;31402;44.752;-0.374;2022-11-04T16:38:55;13.37;;;3.23;;
45692;SDS011;31402;44.752;-0.374;2022-11-04T16:41:23;13.33;;;2.63;;
45692;SDS011;31402;44.752;-0.374;2022-11-04T16:43:51;10.53;;;2.20;;
45692;SDS011;31402;44.752;-0.374;2022-11-04T16:46:17;9.77;;;1.93;;
45692;SDS011;31402;44.752;-0.374;2022-11-04T16:48:43;9.23;;;2.10;;
45692;SDS011;31402;44.752;-0.374;2022-11-04T16:51:19;12.47;;;2.80;;
45692;SDS011;31402;44.752;-0.374;2022-11-04T16:53:47;12.13;;;3.13;;
45692;SDS011;31402;44.752;-0.374;2022-11-04T16:56:16;10.93;;;2.30;;
45692;SDS011;31402;44.752;-0.374;2022-11-04T16:58:45;12.20;;;3.10;;
45692;SDS011;31402;44.752;-0.374;2022-11-04T17:01:12;9.50;;;3.97;;
45692;SDS011;31402;44.752;-0.374;2022-11-04T17:03:38;9.00;;;2.00;;
45692;SDS011;31402;44.752;-0.374;2022-11-04T17:06:05;11.70;;;2.17;;
45692;SDS011;31402;44.752;-0.374;2022-11-04T17:08:31;10.83;;;1.70;;
45692;SDS011;31402;44.752;-0.374;2022-11-04T17:10:57;9.97;;;1.97;;
45692;SDS011;31402;44.752;-0.374;2022-11-04T17:13:23;10.63;;;1.87;;
45692;SDS011;31402;44.752;-0.374;2022-11-04T17:15:48;13.83;;;1.80;;
45692;SDS011;31402;44.752;-0.374;2022-11-04T17:18:15;8.37;;;1.60;;
45692;SDS011;31402;44.752;-0.374;2022-11-04T17:20:47;9.30;;;1.70;;